Terminal Aerodrome Forecast
Issued by NWS

Home | Current Version | Previous Version | Text Only | Print | Product List | Glossary On
Versions: 1 2 3 4 5 6 7 8 9 10 11 12
073
FTUS45 KPSR 201120
TAFBLH
TAF
KBLH 201120Z 2012/2112 18008KT P6SM SKC
      TEMPO 2013/2015 33004KT
     FM202100 18010G18KT P6SM SCT120 SCT200
     FM210100 18008KT P6SM SCT120 SCT200=

USA.gov is the U.S. government's official web portal to all federal, state and local government web resources and services.